sensor_id;sensor_type;location;lat;lon;timestamp;pressure;altitude;pressure_sealevel;temperature;humidity
22440;BME280;11387;51.612;7.210;2023-03-03T00:00:46;101503.50;;;0.86;91.15
22440;BME280;11387;51.612;7.210;2023-03-03T00:03:17;101501.34;;;0.95;91.50
22440;BME280;11387;51.612;7.210;2023-03-03T00:05:46;101503.06;;;0.89;91.64
22440;BME280;11387;51.612;7.210;2023-03-03T00:08:14;101496.19;;;0.93;91.60
22440;BME280;11387;51.612;7.210;2023-03-03T00:10:43;101493.44;;;1.07;91.10
22440;BME280;11387;51.612;7.210;2023-03-03T00:13:14;101500.06;;;1.11;90.75
22440;BME280;11387;51.612;7.210;2023-03-03T00:15:45;101505.06;;;1.07;90.49
22440;BME280;11387;51.612;7.210;2023-03-03T00:18:20;101499.63;;;1.14;90.67
22440;BME280;11387;51.612;7.210;2023-03-03T00:20:52;101501.72;;;1.12;90.25
22440;BME280;11387;51.612;7.210;2023-03-03T00:23:29;101499.09;;;0.92;91.03
22440;BME280;11387;51.612;7.210;2023-03-03T00:25:58;101508.69;;;0.81;91.26
22440;BME280;11387;51.612;7.210;2023-03-03T00:28:29;101498.31;;;0.85;91.45
22440;BME280;11387;51.612;7.210;2023-03-03T00:31:13;101501.75;;;0.98;90.91
22440;BME280;11387;51.612;7.210;2023-03-03T00:33:46;101506.31;;;0.98;90.73
22440;BME280;11387;51.612;7.210;2023-03-03T00:36:27;101509.31;;;0.83;90.89
22440;BME280;11387;51.612;7.210;2023-03-03T00:39:13;101510.53;;;0.87;90.97
22440;BME280;11387;51.612;7.210;2023-03-03T00:41:44;101514.19;;;0.99;91.10
22440;BME280;11387;51.612;7.210;2023-03-03T00:44:36;101521.63;;;1.11;90.40
22440;BME280;11387;51.612;7.210;2023-03-03T00:47:34;101511.28;;;1.01;90.43
22440;BME280;11387;51.612;7.210;2023-03-03T00:50:31;101513.88;;;0.76;90.91
22440;BME280;11387;51.612;7.210;2023-03-03T00:53:02;101524.66;;;0.76;91.07
22440;BME280;11387;51.612;7.210;2023-03-03T00:55:33;101525.47;;;0.70;91.35
22440;BME280;11387;51.612;7.210;2023-03-03T00:58:02;101534.59;;;0.82;91.08
22440;BME280;11387;51.612;7.210;2023-03-03T01:00:32;101526.06;;;0.85;90.69
22440;BME280;11387;51.612;7.210;2023-03-03T01:03:03;101517.63;;;0.62;91.33
22440;BME280;11387;51.612;7.210;2023-03-03T01:05:33;101517.06;;;0.53;91.48
22440;BME280;11387;51.612;7.210;2023-03-03T01:08:02;101519.72;;;0.60;91.68
22440;BME280;11387;51.612;7.210;2023-03-03T01:10:33;101524.88;;;0.61;91.62
22440;BME280;11387;51.612;7.210;2023-03-03T01:13:04;101522.84;;;0.57;92.21
22440;BME280;11387;51.612;7.210;2023-03-03T01:15:33;101525.53;;;0.57;92.14
22440;BME280;11387;51.612;7.210;2023-03-03T01:18:03;101520.56;;;0.60;92.11
22440;BME280;11387;51.612;7.210;2023-03-03T01:20:32;101526.31;;;0.71;91.95
22440;BME280;11387;51.612;7.210;2023-03-03T01:23:01;101518.03;;;0.72;91.57
22440;BME280;11387;51.612;7.210;2023-03-03T01:25:29;101514.06;;;0.81;91.72
22440;BME280;11387;51.612;7.210;2023-03-03T01:27:58;101526.28;;;0.90;91.55
22440;BME280;11387;51.612;7.210;2023-03-03T01:30:27;101523.09;;;1.07;91.08
22440;BME280;11387;51.612;7.210;2023-03-03T01:32:55;101517.06;;;1.11;90.79
22440;BME280;11387;51.612;7.210;2023-03-03T01:35:25;101510.00;;;1.10;90.30
22440;BME280;11387;51.612;7.210;2023-03-03T01:37:54;101511.31;;;0.94;90.30
22440;BME280;11387;51.612;7.210;2023-03-03T01:40:25;101525.56;;;1.08;90.60
22440;BME280;11387;51.612;7.210;2023-03-03T01:42:54;101529.81;;;0.84;90.92
22440;BME280;11387;51.612;7.210;2023-03-03T01:45:24;101527.31;;;0.89;90.94
22440;BME280;11387;51.612;7.210;2023-03-03T01:47:59;101528.41;;;0.62;91.38
22440;BME280;11387;51.612;7.210;2023-03-03T01:50:40;101527.59;;;0.55;92.09
22440;BME280;11387;51.612;7.210;2023-03-03T01:53:13;101514.72;;;0.63;92.67
22440;BME280;11387;51.612;7.210;2023-03-03T01:55:44;101516.00;;;0.54;92.70
22440;BME280;11387;51.612;7.210;2023-03-03T01:58:15;101506.91;;;0.49;92.79
22440;BME280;11387;51.612;7.210;2023-03-03T02:00:48;101504.44;;;0.47;93.22
22440;BME280;11387;51.612;7.210;2023-03-03T02:03:19;101508.38;;;0.45;93.50
22440;BME280;11387;51.612;7.210;2023-03-03T02:05:52;101507.31;;;0.59;93.06
22440;BME280;11387;51.612;7.210;2023-03-03T02:08:25;101513.06;;;0.69;93.10
22440;BME280;11387;51.612;7.210;2023-03-03T02:10:56;101505.97;;;0.88;91.99
22440;BME280;11387;51.612;7.210;2023-03-03T02:13:25;101498.56;;;0.70;91.25
22440;BME280;11387;51.612;7.210;2023-03-03T02:15:53;101500.22;;;0.71;91.93
22440;BME280;11387;51.612;7.210;2023-03-03T02:18:23;101508.50;;;0.76;92.28
22440;BME280;11387;51.612;7.210;2023-03-03T02:20:56;101516.34;;;0.84;92.28
22440;BME280;11387;51.612;7.210;2023-03-03T02:23:31;101515.88;;;0.94;92.43
22440;BME280;11387;51.612;7.210;2023-03-03T02:26:06;101517.56;;;0.88;91.60
22440;BME280;11387;51.612;7.210;2023-03-03T02:28:37;101518.63;;;0.87;91.14
22440;BME280;11387;51.612;7.210;2023-03-03T02:31:09;101515.50;;;0.90;91.53
22440;BME280;11387;51.612;7.210;2023-03-03T02:33:39;101512.13;;;0.95;91.30
22440;BME280;11387;51.612;7.210;2023-03-03T02:36:11;101504.75;;;0.84;91.38
22440;BME280;11387;51.612;7.210;2023-03-03T02:38:44;101521.75;;;0.71;91.83
22440;BME280;11387;51.612;7.210;2023-03-03T02:41:26;101510.38;;;0.62;91.62
22440;BME280;11387;51.612;7.210;2023-03-03T02:44:00;101513.13;;;0.43;91.83
22440;BME280;11387;51.612;7.210;2023-03-03T02:46:33;101508.16;;;0.40;91.72
22440;BME280;11387;51.612;7.210;2023-03-03T02:49:05;101509.84;;;0.27;92.23
22440;BME280;11387;51.612;7.210;2023-03-03T02:51:35;101510.25;;;0.24;92.54
22440;BME280;11387;51.612;7.210;2023-03-03T02:54:07;101509.00;;;0.33;93.15
22440;BME280;11387;51.612;7.210;2023-03-03T02:56:42;101517.28;;;0.39;92.55
22440;BME280;11387;51.612;7.210;2023-03-03T02:59:11;101510.44;;;0.43;92.22
22440;BME280;11387;51.612;7.210;2023-03-03T03:01:40;101510.00;;;0.59;92.32
22440;BME280;11387;51.612;7.210;2023-03-03T03:04:12;101515.75;;;0.69;92.20
22440;BME280;11387;51.612;7.210;2023-03-03T03:06:45;101508.97;;;0.60;91.46
22440;BME280;11387;51.612;7.210;2023-03-03T03:09:15;101509.56;;;0.62;91.20
22440;BME280;11387;51.612;7.210;2023-03-03T03:11:45;101511.22;;;0.63;91.49
22440;BME280;11387;51.612;7.210;2023-03-03T03:14:14;101512.63;;;0.72;91.79
22440;BME280;11387;51.612;7.210;2023-03-03T03:16:46;101503.94;;;0.70;90.56
22440;BME280;11387;51.612;7.210;2023-03-03T03:19:17;101509.75;;;0.67;90.99
22440;BME280;11387;51.612;7.210;2023-03-03T03:21:49;101517.81;;;0.67;91.03
22440;BME280;11387;51.612;7.210;2023-03-03T03:24:23;101520.16;;;0.57;90.47
22440;BME280;11387;51.612;7.210;2023-03-03T03:26:55;101516.00;;;0.54;90.72
22440;BME280;11387;51.612;7.210;2023-03-03T03:29:27;101528.88;;;0.32;91.41
22440;BME280;11387;51.612;7.210;2023-03-03T03:32:04;101533.44;;;0.12;92.41
22440;BME280;11387;51.612;7.210;2023-03-03T03:34:38;101533.03;;;0.02;92.98
22440;BME280;11387;51.612;7.210;2023-03-03T03:37:07;101540.47;;;0.07;93.13
22440;BME280;11387;51.612;7.210;2023-03-03T03:39:38;101541.72;;;0.17;92.92
22440;BME280;11387;51.612;7.210;2023-03-03T03:42:08;101542.94;;;0.02;93.39
22440;BME280;11387;51.612;7.210;2023-03-03T03:44:37;101535.31;;;0.05;93.67
22440;BME280;11387;51.612;7.210;2023-03-03T03:47:11;101537.59;;;0.15;93.61
22440;BME280;11387;51.612;7.210;2023-03-03T03:49:47;101541.31;;;0.07;93.89
22440;BME280;11387;51.612;7.210;2023-03-03T03:52:19;101545.88;;;0.13;94.13
22440;BME280;11387;51.612;7.210;2023-03-03T03:54:47;101546.06;;;0.18;93.91
22440;BME280;11387;51.612;7.210;2023-03-03T03:57:23;101541.69;;;0.37;93.64
22440;BME280;11387;51.612;7.210;2023-03-03T03:59:54;101543.34;;;0.31;92.92
22440;BME280;11387;51.612;7.210;2023-03-03T04:02:25;101548.97;;;0.23;93.35
22440;BME280;11387;51.612;7.210;2023-03-03T04:04:54;101549.97;;;0.36;93.18
22440;BME280;11387;51.612;7.210;2023-03-03T04:07:22;101545.44;;;0.49;92.43
22440;BME280;11387;51.612;7.210;2023-03-03T04:09:51;101538.19;;;0.37;92.29
22440;BME280;11387;51.612;7.210;2023-03-03T04:12:21;101543.38;;;0.25;92.46
22440;BME280;11387;51.612;7.210;2023-03-03T04:14:49;101538.84;;;0.25;93.12
22440;BME280;11387;51.612;7.210;2023-03-03T04:17:19;101547.72;;;0.19;92.93
22440;BME280;11387;51.612;7.210;2023-03-03T04:19:47;101539.66;;;0.06;93.48
22440;BME280;11387;51.612;7.210;2023-03-03T04:22:16;101545.03;;;0.13;93.46
22440;BME280;11387;51.612;7.210;2023-03-03T04:24:44;101543.38;;;0.12;94.15
22440;BME280;11387;51.612;7.210;2023-03-03T04:27:15;101543.59;;;0.17;93.23
22440;BME280;11387;51.612;7.210;2023-03-03T04:29:44;101548.34;;;0.08;93.14
22440;BME280;11387;51.612;7.210;2023-03-03T04:32:13;101542.78;;;0.29;92.90
22440;BME280;11387;51.612;7.210;2023-03-03T04:34:42;101551.22;;;0.33;92.52
22440;BME280;11387;51.612;7.210;2023-03-03T04:37:11;101546.47;;;0.48;92.23
22440;BME280;11387;51.612;7.210;2023-03-03T04:39:39;101545.84;;;0.40;92.50
22440;BME280;11387;51.612;7.210;2023-03-03T04:42:08;101537.56;;;0.34;92.66
22440;BME280;11387;51.612;7.210;2023-03-03T04:44:36;101540.28;;;0.28;92.87
22440;BME280;11387;51.612;7.210;2023-03-03T04:47:06;101536.97;;;0.26;92.62
22440;BME280;11387;51.612;7.210;2023-03-03T04:49:35;101538.00;;;0.12;93.04
22440;BME280;11387;51.612;7.210;2023-03-03T04:52:04;101533.88;;;0.16;93.80
22440;BME280;11387;51.612;7.210;2023-03-03T04:54:32;101542.34;;;0.19;93.81
22440;BME280;11387;51.612;7.210;2023-03-03T04:57:01;101533.66;;;0.24;93.52
22440;BME280;11387;51.612;7.210;2023-03-03T04:59:29;101547.53;;;0.14;93.96
22440;BME280;11387;51.612;7.210;2023-03-03T05:01:58;101540.47;;;0.13;93.72
22440;BME280;11387;51.612;7.210;2023-03-03T05:04:28;101550.22;;;0.27;93.18
22440;BME280;11387;51.612;7.210;2023-03-03T05:06:56;101549.16;;;0.42;92.66
22440;BME280;11387;51.612;7.210;2023-03-03T05:09:25;101549.34;;;0.53;92.21
22440;BME280;11387;51.612;7.210;2023-03-03T05:11:53;101546.25;;;0.50;92.12
22440;BME280;11387;51.612;7.210;2023-03-03T05:14:22;101540.88;;;0.56;91.37
22440;BME280;11387;51.612;7.210;2023-03-03T05:16:50;101544.59;;;0.49;91.43
22440;BME280;11387;51.612;7.210;2023-03-03T05:19:19;101544.81;;;0.34;91.74
22440;BME280;11387;51.612;7.210;2023-03-03T05:21:49;101546.28;;;0.30;91.85
22440;BME280;11387;51.612;7.210;2023-03-03T05:24:17;101551.25;;;0.13;92.22
22440;BME280;11387;51.612;7.210;2023-03-03T05:26:46;101555.59;;;0.27;92.31
22440;BME280;11387;51.612;7.210;2023-03-03T05:29:14;101556.81;;;0.31;92.34
22440;BME280;11387;51.612;7.210;2023-03-03T05:31:42;101549.56;;;0.39;92.35
22440;BME280;11387;51.612;7.210;2023-03-03T05:34:12;101553.50;;;0.56;91.87
22440;BME280;11387;51.612;7.210;2023-03-03T05:36:40;101551.63;;;0.56;91.05
22440;BME280;11387;51.612;7.210;2023-03-03T05:39:10;101552.88;;;0.54;91.19
22440;BME280;11387;51.612;7.210;2023-03-03T05:41:39;101546.47;;;0.55;90.57
22440;BME280;11387;51.612;7.210;2023-03-03T05:44:07;101547.50;;;0.41;90.72
22440;BME280;11387;51.612;7.210;2023-03-03T05:46:36;101537.56;;;0.34;91.28
22440;BME280;11387;51.612;7.210;2023-03-03T05:49:05;101540.88;;;0.37;91.45
22440;BME280;11387;51.612;7.210;2023-03-03T05:51:33;101543.16;;;0.33;91.20
22440;BME280;11387;51.612;7.210;2023-03-03T05:54:02;101550.19;;;0.41;91.17
22440;BME280;11387;51.612;7.210;2023-03-03T05:56:32;101557.84;;;0.44;90.83
22440;BME280;11387;51.612;7.210;2023-03-03T05:59:00;101561.16;;;0.46;90.68
22440;BME280;11387;51.612;7.210;2023-03-03T06:01:28;101553.72;;;0.41;90.90
22440;BME280;11387;51.612;7.210;2023-03-03T06:03:57;101554.13;;;0.38;91.20
22440;BME280;11387;51.612;7.210;2023-03-03T06:06:25;101562.41;;;0.37;90.93
22440;BME280;11387;51.612;7.210;2023-03-03T06:08:54;101562.41;;;0.37;91.00
22440;BME280;11387;51.612;7.210;2023-03-03T06:11:23;101555.81;;;0.26;91.06
22440;BME280;11387;51.612;7.210;2023-03-03T06:13:53;101568.66;;;0.30;91.37
22440;BME280;11387;51.612;7.210;2023-03-03T06:16:21;101566.38;;;0.27;91.00
22440;BME280;11387;51.612;7.210;2023-03-03T06:18:50;101574.00;;;0.44;91.18
22440;BME280;11387;51.612;7.210;2023-03-03T06:21:27;101584.34;;;0.33;90.80
22440;BME280;11387;51.612;7.210;2023-03-03T06:23:56;101577.94;;;0.34;91.18
22440;BME280;11387;51.612;7.210;2023-03-03T06:26:25;101579.38;;;0.37;90.84
22440;BME280;11387;51.612;7.210;2023-03-03T06:28:57;101579.19;;;0.58;91.04
22440;BME280;11387;51.612;7.210;2023-03-03T06:31:26;101579.81;;;0.54;90.05
22440;BME280;11387;51.612;7.210;2023-03-03T06:33:55;101590.38;;;0.49;90.19
22440;BME280;11387;51.612;7.210;2023-03-03T06:36:23;101587.66;;;0.49;90.07
22440;BME280;11387;51.612;7.210;2023-03-03T06:38:52;101588.03;;;0.79;89.50
22440;BME280;11387;51.612;7.210;2023-03-03T06:41:21;101592.19;;;0.75;89.09
22440;BME280;11387;51.612;7.210;2023-03-03T06:43:52;101601.94;;;0.69;89.15
22440;BME280;11387;51.612;7.210;2023-03-03T06:46:22;101597.16;;;0.71;89.12
22440;BME280;11387;51.612;7.210;2023-03-03T06:48:51;101606.88;;;0.85;89.09
22440;BME280;11387;51.612;7.210;2023-03-03T06:51:23;101609.59;;;0.85;89.00
22440;BME280;11387;51.612;7.210;2023-03-03T06:53:54;101611.84;;;0.88;89.20
22440;BME280;11387;51.612;7.210;2023-03-03T06:56:23;101605.41;;;0.96;89.01
22440;BME280;11387;51.612;7.210;2023-03-03T06:58:53;101615.16;;;0.90;88.91
22440;BME280;11387;51.612;7.210;2023-03-03T07:01:26;101610.78;;;1.02;88.86
22440;BME280;11387;51.612;7.210;2023-03-03T07:03:55;101615.53;;;1.00;88.50
22440;BME280;11387;51.612;7.210;2023-03-03T07:06:25;101614.22;;;1.23;86.49
22440;BME280;11387;51.612;7.210;2023-03-03T07:08:56;101626.13;;;0.95;86.83
22440;BME280;11387;51.612;7.210;2023-03-03T07:11:24;101621.53;;;1.02;87.43
22440;BME280;11387;51.612;7.210;2023-03-03T07:13:53;101626.94;;;1.02;87.03
22440;BME280;11387;51.612;7.210;2023-03-03T07:16:26;101627.97;;;0.95;87.25
22440;BME280;11387;51.612;7.210;2023-03-03T07:18:58;101629.47;;;0.84;87.96
22440;BME280;11387;51.612;7.210;2023-03-03T07:21:30;101633.41;;;0.75;88.10
22440;BME280;11387;51.612;7.210;2023-03-03T07:24:18;101630.72;;;0.75;88.76
22440;BME280;11387;51.612;7.210;2023-03-03T07:26:50;101626.56;;;0.79;88.35
22440;BME280;11387;51.612;7.210;2023-03-03T07:29:23;101633.22;;;0.70;88.95
22440;BME280;11387;51.612;7.210;2023-03-03T07:31:54;101638.59;;;0.77;89.14
22440;BME280;11387;51.612;7.210;2023-03-03T07:34:29;101634.25;;;0.69;89.55
22440;BME280;11387;51.612;7.210;2023-03-03T07:37:09;101632.63;;;0.55;89.57
22440;BME280;11387;51.612;7.210;2023-03-03T07:39:42;101643.78;;;0.65;89.74
22440;BME280;11387;51.612;7.210;2023-03-03T07:42:18;101644.81;;;0.64;89.43
22440;BME280;11387;51.612;7.210;2023-03-03T07:44:50;101650.63;;;0.74;89.57
22440;BME280;11387;51.612;7.210;2023-03-03T07:47:23;101651.81;;;0.98;88.54
22440;BME280;11387;51.612;7.210;2023-03-03T07:49:54;101663.88;;;0.76;88.84
22440;BME280;11387;51.612;7.210;2023-03-03T07:52:27;101659.72;;;0.73;88.74
22440;BME280;11387;51.612;7.210;2023-03-03T07:54:58;101655.59;;;0.77;89.17
22440;BME280;11387;51.612;7.210;2023-03-03T07:57:34;101665.53;;;0.83;88.76
22440;BME280;11387;51.612;7.210;2023-03-03T08:03:18;101673.19;;;0.80;88.70
22440;BME280;11387;51.612;7.210;2023-03-03T08:05:47;101681.66;;;1.10;88.27
22440;BME280;11387;51.612;7.210;2023-03-03T08:08:27;101679.56;;;1.12;88.08
22440;BME280;11387;51.612;7.210;2023-03-03T08:10:58;101684.09;;;1.24;87.63
22440;BME280;11387;51.612;7.210;2023-03-03T08:13:28;101678.69;;;1.31;87.59
22440;BME280;11387;51.612;7.210;2023-03-03T08:16:23;101687.19;;;1.41;87.03
22440;BME280;11387;51.612;7.210;2023-03-03T08:18:57;101683.66;;;1.41;86.45
22440;BME280;11387;51.612;7.210;2023-03-03T08:21:29;101690.28;;;1.38;86.34
22440;BME280;11387;51.612;7.210;2023-03-03T08:23:58;101692.56;;;1.41;86.38
22440;BME280;11387;51.612;7.210;2023-03-03T08:26:27;101695.88;;;1.50;86.21
22440;BME280;11387;51.612;7.210;2023-03-03T08:28:55;101694.34;;;1.60;85.58
22440;BME280;11387;51.612;7.210;2023-03-03T08:31:24;101702.84;;;1.71;85.51
22440;BME280;11387;51.612;7.210;2023-03-03T08:34:09;101695.97;;;1.75;84.24
22440;BME280;11387;51.612;7.210;2023-03-03T08:36:37;101697.22;;;1.79;83.59
22440;BME280;11387;51.612;7.210;2023-03-03T08:39:05;101698.09;;;1.66;83.07
22440;BME280;11387;51.612;7.210;2023-03-03T08:41:35;101709.66;;;1.80;83.43
22440;BME280;11387;51.612;7.210;2023-03-03T08:44:05;101704.09;;;1.61;83.23
22440;BME280;11387;51.612;7.210;2023-03-03T08:46:33;101708.53;;;1.43;82.57
22440;BME280;11387;51.612;7.210;2023-03-03T08:49:02;101706.91;;;1.28;83.86
22440;BME280;11387;51.612;7.210;2023-03-03T08:51:32;101712.13;;;1.10;84.11
22440;BME280;11387;51.612;7.210;2023-03-03T08:54:01;101706.56;;;0.85;85.01
22440;BME280;11387;51.612;7.210;2023-03-03T08:56:29;101709.38;;;1.23;85.49
22440;BME280;11387;51.612;7.210;2023-03-03T08:58:58;101713.91;;;1.49;84.76
22440;BME280;11387;51.612;7.210;2023-03-03T09:01:29;101716.78;;;1.54;83.09
22440;BME280;11387;51.612;7.210;2023-03-03T09:03:57;101711.84;;;1.51;83.73
22440;BME280;11387;51.612;7.210;2023-03-03T09:06:26;101716.00;;;1.47;82.77
22440;BME280;11387;51.612;7.210;2023-03-03T09:08:56;101722.63;;;1.51;83.74
22440;BME280;11387;51.612;7.210;2023-03-03T09:11:26;101719.00;;;1.77;83.83
22440;BME280;11387;51.612;7.210;2023-03-03T09:13:59;101729.09;;;1.95;82.60
22440;BME280;11387;51.612;7.210;2023-03-03T09:16:33;101731.03;;;2.19;81.23
22440;BME280;11387;51.612;7.210;2023-03-03T09:19:17;101727.88;;;2.29;79.70
22440;BME280;11387;51.612;7.210;2023-03-03T09:21:47;101722.31;;;2.17;79.63
22440;BME280;11387;51.612;7.210;2023-03-03T09:24:24;101719.75;;;1.97;79.99
22440;BME280;11387;51.612;7.210;2023-03-03T09:26:54;101728.06;;;1.89;81.19
22440;BME280;11387;51.612;7.210;2023-03-03T09:29:25;101729.38;;;2.18;80.32
22440;BME280;11387;51.612;7.210;2023-03-03T09:31:56;101720.59;;;2.29;79.31
22440;BME280;11387;51.612;7.210;2023-03-03T09:34:37;101730.84;;;2.14;79.75
22440;BME280;11387;51.612;7.210;2023-03-03T09:37:20;101722.94;;;2.19;80.17
22440;BME280;11387;51.612;7.210;2023-03-03T09:39:51;101722.34;;;2.49;78.89
22440;BME280;11387;51.612;7.210;2023-03-03T09:45:27;101735.19;;;2.22;79.39
22440;BME280;11387;51.612;7.210;2023-03-03T09:51:12;101743.25;;;2.60;77.11
22440;BME280;11387;51.612;7.210;2023-03-03T09:53:54;101743.25;;;2.28;77.09
22440;BME280;11387;51.612;7.210;2023-03-03T09:56:32;101740.91;;;2.39;77.89
22440;BME280;11387;51.612;7.210;2023-03-03T09:59:30;101746.66;;;2.49;77.58
22440;BME280;11387;51.612;7.210;2023-03-03T10:02:19;101740.31;;;2.68;77.72
22440;BME280;11387;51.612;7.210;2023-03-03T10:07:57;101748.91;;;2.52;76.28
22440;BME280;11387;51.612;7.210;2023-03-03T10:11:09;101744.22;;;2.72;76.10
22440;BME280;11387;51.612;7.210;2023-03-03T10:16:50;101744.63;;;3.00;76.84
22440;BME280;11387;51.612;7.210;2023-03-03T10:19:43;101755.00;;;3.03;75.49
22440;BME280;11387;51.612;7.210;2023-03-03T10:22:18;101764.41;;;2.69;75.24
22440;BME280;11387;51.612;7.210;2023-03-03T10:25:07;101749.94;;;2.82;74.99
22440;BME280;11387;51.612;7.210;2023-03-03T10:27:47;101759.63;;;2.96;75.53
22440;BME280;11387;51.612;7.210;2023-03-03T10:30:26;101760.94;;;2.87;75.68
22440;BME280;11387;51.612;7.210;2023-03-03T10:33:19;101765.56;;;2.80;76.67
22440;BME280;11387;51.612;7.210;2023-03-03T10:36:07;101768.09;;;2.75;76.63
22440;BME280;11387;51.612;7.210;2023-03-03T10:38:54;101772.97;;;2.91;75.80
22440;BME280;11387;51.612;7.210;2023-03-03T10:41:38;101771.53;;;3.14;76.55
22440;BME280;11387;51.612;7.210;2023-03-03T10:44:26;101769.81;;;3.19;76.42
22440;BME280;11387;51.612;7.210;2023-03-03T10:47:18;101761.81;;;3.31;75.37
22440;BME280;11387;51.612;7.210;2023-03-03T10:50:00;101767.72;;;3.64;74.84
22440;BME280;11387;51.612;7.210;2023-03-03T10:52:38;101768.28;;;3.48;73.83
22440;BME280;11387;51.612;7.210;2023-03-03T10:55:22;101769.81;;;3.62;73.73
22440;BME280;11387;51.612;7.210;2023-03-03T10:58:09;101764.63;;;3.79;73.67
22440;BME280;11387;51.612;7.210;2023-03-03T11:00:45;101766.41;;;3.49;72.84
22440;BME280;11387;51.612;7.210;2023-03-03T11:06:34;101754.97;;;3.47;74.35
22440;BME280;11387;51.612;7.210;2023-03-03T11:09:12;101761.09;;;3.60;73.07
22440;BME280;11387;51.612;7.210;2023-03-03T11:11:49;101758.53;;;3.47;73.49
22440;BME280;11387;51.612;7.210;2023-03-03T11:14:27;101753.59;;;3.62;73.27
22440;BME280;11387;51.612;7.210;2023-03-03T11:17:02;101752.59;;;3.75;73.59
22440;BME280;11387;51.612;7.210;2023-03-03T11:19:39;101755.06;;;3.77;72.61
22440;BME280;11387;51.612;7.210;2023-03-03T11:22:25;101763.41;;;3.75;72.50
22440;BME280;11387;51.612;7.210;2023-03-03T11:25:04;101758.88;;;4.05;71.30
22440;BME280;11387;51.612;7.210;2023-03-03T11:27:55;101745.78;;;4.21;72.15
22440;BME280;11387;51.612;7.210;2023-03-03T11:30:33;101751.84;;;4.34;71.69
22440;BME280;11387;51.612;7.210;2023-03-03T11:33:10;101749.88;;;4.42;70.22
22440;BME280;11387;51.612;7.210;2023-03-03T11:35:43;101750.19;;;4.33;70.11
22440;BME280;11387;51.612;7.210;2023-03-03T11:38:26;101744.22;;;4.43;71.19
22440;BME280;11387;51.612;7.210;2023-03-03T11:41:02;101742.44;;;4.37;69.45
22440;BME280;11387;51.612;7.210;2023-03-03T11:43:37;101742.25;;;4.20;70.77
22440;BME280;11387;51.612;7.210;2023-03-03T11:46:10;101738.63;;;4.26;70.26
22440;BME280;11387;51.612;7.210;2023-03-03T11:48:46;101738.34;;;4.16;69.67
22440;BME280;11387;51.612;7.210;2023-03-03T11:51:29;101735.97;;;3.90;70.80
22440;BME280;11387;51.612;7.210;2023-03-03T11:54:04;101735.31;;;4.24;70.90
22440;BME280;11387;51.612;7.210;2023-03-03T11:56:40;101733.00;;;4.39;70.05
22440;BME280;11387;51.612;7.210;2023-03-03T11:59:51;101731.69;;;4.72;68.10
22440;BME280;11387;51.612;7.210;2023-03-03T12:02:46;101728.78;;;4.85;68.33
22440;BME280;11387;51.612;7.210;2023-03-03T12:05:29;101725.00;;;5.21;66.96
22440;BME280;11387;51.612;7.210;2023-03-03T12:08:07;101720.28;;;5.52;65.88
22440;BME280;11387;51.612;7.210;2023-03-03T12:10:49;101721.97;;;5.18;65.85
22440;BME280;11387;51.612;7.210;2023-03-03T12:13:28;101718.19;;;5.19;65.87
22440;BME280;11387;51.612;7.210;2023-03-03T12:16:04;101721.94;;;5.06;66.60
22440;BME280;11387;51.612;7.210;2023-03-03T12:18:46;101717.41;;;4.53;67.24
22440;BME280;11387;51.612;7.210;2023-03-03T12:21:27;101715.69;;;5.05;66.17
22440;BME280;11387;51.612;7.210;2023-03-03T12:24:11;101713.25;;;5.16;66.34
22440;BME280;11387;51.612;7.210;2023-03-03T12:26:53;101710.28;;;5.05;66.50
22440;BME280;11387;51.612;7.210;2023-03-03T12:29:34;101708.47;;;6.38;63.59
22440;BME280;11387;51.612;7.210;2023-03-03T12:32:16;101709.75;;;5.79;62.75
22440;BME280;11387;51.612;7.210;2023-03-03T12:34:53;101710.31;;;5.81;62.76
22440;BME280;11387;51.612;7.210;2023-03-03T12:37:35;101707.34;;;5.82;64.37
22440;BME280;11387;51.612;7.210;2023-03-03T12:40:13;101708.16;;;6.51;61.25
22440;BME280;11387;51.612;7.210;2023-03-03T12:42:59;101696.81;;;6.88;59.46
22440;BME280;11387;51.612;7.210;2023-03-03T12:45:37;101694.16;;;7.48;57.85
22440;BME280;11387;51.612;7.210;2023-03-03T12:48:15;101699.28;;;8.64;53.82
22440;BME280;11387;51.612;7.210;2023-03-03T12:50:53;101689.69;;;7.81;54.79
22440;BME280;11387;51.612;7.210;2023-03-03T12:53:43;101690.25;;;8.58;54.92
22440;BME280;11387;51.612;7.210;2023-03-03T12:56:22;101693.16;;;9.63;51.54
22440;BME280;11387;51.612;7.210;2023-03-03T12:58:59;101693.94;;;8.74;52.47
22440;BME280;11387;51.612;7.210;2023-03-03T13:01:44;101695.03;;;8.73;53.60
22440;BME280;11387;51.612;7.210;2023-03-03T13:04:27;101686.78;;;12.21;45.22
22440;BME280;11387;51.612;7.210;2023-03-03T13:07:05;101686.28;;;15.60;38.82
22440;BME280;11387;51.612;7.210;2023-03-03T13:09:54;101675.97;;;16.51;34.45
22440;BME280;11387;51.612;7.210;2023-03-03T13:12:32;101675.66;;;16.67;34.73
22440;BME280;11387;51.612;7.210;2023-03-03T13:15:11;101683.91;;;16.08;34.27
22440;BME280;11387;51.612;7.210;2023-03-03T13:17:50;101679.28;;;16.98;32.51
22440;BME280;11387;51.612;7.210;2023-03-03T13:20:28;101677.97;;;15.19;36.40
22440;BME280;11387;51.612;7.210;2023-03-03T13:23:03;101675.34;;;16.55;33.84
22440;BME280;11387;51.612;7.210;2023-03-03T13:25:42;101677.38;;;15.49;34.57
22440;BME280;11387;51.612;7.210;2023-03-03T13:28:20;101674.47;;;15.13;35.71
22440;BME280;11387;51.612;7.210;2023-03-03T13:30:56;101672.78;;;13.72;38.51
22440;BME280;11387;51.612;7.210;2023-03-03T13:33:27;101673.47;;;13.59;38.87
22440;BME280;11387;51.612;7.210;2023-03-03T13:35:59;101672.88;;;15.40;35.42
22440;BME280;11387;51.612;7.210;2023-03-03T13:38:31;101675.06;;;13.65;38.34
22440;BME280;11387;51.612;7.210;2023-03-03T13:41:06;101673.91;;;14.09;38.24
22440;BME280;11387;51.612;7.210;2023-03-03T13:43:44;101669.09;;;14.01;38.05
22440;BME280;11387;51.612;7.210;2023-03-03T13:46:21;101666.09;;;16.95;33.72
22440;BME280;11387;51.612;7.210;2023-03-03T13:52:01;101650.25;;;18.58;29.59
22440;BME280;11387;51.612;7.210;2023-03-03T13:54:50;101657.97;;;15.41;34.24
22440;BME280;11387;51.612;7.210;2023-03-03T13:57:37;101642.78;;;15.57;34.65